createdAt,value
2023-05-23T00:02:28.436Z,79.14
2023-05-23T00:04:58.030Z,78.95
2023-05-23T00:07:29.010Z,78.75
2023-05-23T00:09:58.674Z,79.06
2023-05-23T00:12:29.202Z,78.96
2023-05-23T00:15:02.423Z,79.20
2023-05-23T00:17:31.589Z,79.00
2023-05-23T00:20:01.054Z,79.21
2023-05-23T00:22:30.162Z,79.23
2023-05-23T00:25:01.646Z,79.35
2023-05-23T00:27:31.722Z,79.71
2023-05-23T00:30:02.702Z,79.83
2023-05-23T00:32:31.743Z,79.95
2023-05-23T00:35:01.159Z,79.86
2023-05-23T00:37:33.660Z,79.98
2023-05-23T00:40:02.814Z,79.92
2023-05-23T00:42:32.632Z,79.92
2023-05-23T00:45:02.733Z,79.99
2023-05-23T00:47:32.622Z,80.14
2023-05-23T00:50:01.630Z,80.18
2023-05-23T00:52:30.879Z,80.19
2023-05-23T00:55:04.250Z,80.18
2023-05-23T00:57:34.790Z,80.16
2023-05-23T01:00:04.013Z,80.47
2023-05-23T01:02:41.070Z,80.30
2023-05-23T01:05:20.191Z,80.38
2023-05-23T01:07:51.193Z,80.26
2023-05-23T01:10:23.958Z,80.37
2023-05-23T01:13:07.341Z,80.42
2023-05-23T01:15:44.129Z,80.36
2023-05-23T01:18:30.144Z,80.55
2023-05-23T01:21:03.636Z,79.25
2023-05-23T01:24:05.306Z,79.92
2023-05-23T01:26:48.637Z,80.37
2023-05-23T01:29:24.838Z,80.35
2023-05-23T01:32:00.837Z,80.94
2023-05-23T01:34:31.420Z,80.88
2023-05-23T01:37:10.644Z,80.96
2023-05-23T01:39:44.418Z,81.08
2023-05-23T01:42:13.848Z,81.05
2023-05-23T01:44:43.400Z,81.15
2023-05-23T01:47:19.777Z,81.15
2023-05-23T01:49:51.039Z,81.46
2023-05-23T01:52:23.892Z,82.02
2023-05-23T01:54:59.268Z,81.84
2023-05-23T01:57:36.069Z,81.76
2023-05-23T02:00:10.480Z,81.57
2023-05-23T02:02:43.501Z,81.57
2023-05-23T02:05:12.982Z,81.46
2023-05-23T02:07:42.014Z,81.60
2023-05-23T02:10:11.886Z,81.88
2023-05-23T02:12:43.273Z,81.91
2023-05-23T02:15:14.461Z,81.93
2023-05-23T02:17:53.482Z,81.95
2023-05-23T02:20:22.782Z,80.90
2023-05-23T02:22:54.760Z,81.69
2023-05-23T02:25:28.353Z,82.10
2023-05-23T02:27:59.532Z,82.15
2023-05-23T02:30:36.133Z,82.35
2023-05-23T02:33:14.625Z,82.34
2023-05-23T02:35:50.386Z,82.36
2023-05-23T02:38:20.185Z,82.20
2023-05-23T02:40:52.961Z,82.65
2023-05-23T02:43:22.214Z,83.09
2023-05-23T02:45:51.298Z,83.54
2023-05-23T02:48:26.426Z,83.39
2023-05-23T02:50:57.273Z,83.36
2023-05-23T02:53:27.338Z,83.82
2023-05-23T02:55:56.684Z,84.08
2023-05-23T02:58:28.166Z,83.85
2023-05-23T03:00:59.016Z,83.42
2023-05-23T03:03:31.383Z,83.47
2023-05-23T03:06:00.609Z,83.50
2023-05-23T03:08:29.861Z,83.47
2023-05-23T03:10:58.762Z,83.56
2023-05-23T03:13:32.363Z,83.60
2023-05-23T03:16:02.413Z,83.27
2023-05-23T03:18:43.399Z,83.42
2023-05-23T03:21:12.752Z,83.68
2023-05-23T03:23:41.931Z,83.69
2023-05-23T03:26:12.391Z,83.76
2023-05-23T03:28:44.444Z,83.79
2023-05-23T03:31:13.293Z,84.03
2023-05-23T03:33:44.732Z,83.62
2023-05-23T03:36:13.808Z,83.78
2023-05-23T03:38:45.433Z,83.67
2023-05-23T03:41:14.495Z,83.83
2023-05-23T03:43:45.444Z,83.91
2023-05-23T03:47:01.350Z,83.85
2023-05-23T03:49:58.606Z,83.67
2023-05-23T03:52:28.352Z,83.82
2023-05-23T03:54:57.589Z,83.77
2023-05-23T03:57:27.188Z,83.77
2023-05-23T03:59:56.843Z,83.94
2023-05-23T04:02:26.097Z,83.98
2023-05-23T04:04:56.586Z,84.06
2023-05-23T04:07:26.843Z,83.55
2023-05-23T04:10:00.144Z,83.13
2023-05-23T04:12:34.053Z,82.37
2023-05-23T04:15:11.011Z,79.92
2023-05-23T04:17:51.114Z,77.32
2023-05-23T04:20:22.138Z,74.13
2023-05-23T04:22:59.119Z,72.82
2023-05-23T04:25:31.135Z,71.43
2023-05-23T04:28:17.304Z,72.35
2023-05-23T04:30:48.854Z,70.95
2023-05-23T04:33:21.197Z,70.21
2023-05-23T04:35:53.048Z,70.07
2023-05-23T04:38:25.141Z,68.95
2023-05-23T04:40:57.392Z,69.85
2023-05-23T04:43:29.562Z,70.14
2023-05-23T04:46:09.657Z,69.40
2023-05-23T04:48:51.472Z,64.56
2023-05-23T04:51:27.496Z,57.93
2023-05-23T04:54:06.459Z,54.17
2023-05-23T04:56:37.979Z,48.60
2023-05-23T04:59:08.241Z,45.75
2023-05-23T05:01:53.091Z,42.15
2023-05-23T05:04:29.028Z,40.61
2023-05-23T05:07:05.841Z,36.50
2023-05-23T05:09:38.173Z,33.56
2023-05-23T05:12:11.167Z,35.32
2023-05-23T05:14:42.423Z,30.75
2023-05-23T05:17:12.432Z,31.79
2023-05-23T05:19:56.447Z,30.44
2023-05-23T05:22:27.443Z,29.19
2023-05-23T05:24:57.167Z,27.74
2023-05-23T05:27:27.839Z,28.24
2023-05-23T05:30:07.468Z,28.04
2023-05-23T05:32:41.693Z,28.93
2023-05-23T05:35:13.518Z,28.84
2023-05-23T05:37:50.468Z,29.11
2023-05-23T05:40:22.824Z,27.51
2023-05-23T05:42:53.054Z,27.16
2023-05-23T05:45:29.739Z,26.27
2023-05-23T05:48:12.378Z,25.48
2023-05-23T05:50:44.808Z,25.23
2023-05-23T05:53:20.064Z,25.12
2023-05-23T05:55:50.348Z,24.53
2023-05-23T05:58:21.644Z,24.63
2023-05-23T06:01:15.058Z,24.31
2023-05-23T06:03:47.916Z,23.43
2023-05-23T06:06:20.349Z,23.00
2023-05-23T06:08:50.397Z,22.66
2023-05-23T06:11:20.043Z,22.74
2023-05-23T06:13:55.127Z,24.30
2023-05-23T06:17:00.489Z,22.85
2023-05-23T06:19:30.892Z,23.93
2023-05-23T06:22:03.586Z,26.03
2023-05-23T06:24:47.169Z,27.24
2023-05-23T06:27:19.690Z,28.53
2023-05-23T06:29:56.402Z,30.27
2023-05-23T06:32:26.547Z,32.23
2023-05-23T06:34:57.515Z,35.06
2023-05-23T06:37:27.059Z,34.98
2023-05-23T06:39:58.233Z,36.35
2023-05-23T06:42:28.409Z,38.88
2023-05-23T06:45:11.123Z,38.83
2023-05-23T06:47:43.312Z,38.03
2023-05-23T06:50:19.637Z,40.40
2023-05-23T06:52:51.330Z,41.54
2023-05-23T06:55:21.309Z,41.32
2023-05-23T06:57:57.851Z,40.61
2023-05-23T07:00:28.777Z,42.45
2023-05-23T07:03:18.809Z,43.19
2023-05-23T07:05:51.296Z,43.17
2023-05-23T07:08:21.951Z,42.65
2023-05-23T07:10:58.830Z,43.17
2023-05-23T07:13:37.048Z,42.53
2023-05-23T07:16:07.149Z,43.18
2023-05-23T07:18:39.418Z,42.48
2023-05-23T07:21:08.654Z,43.50
2023-05-23T07:23:40.900Z,42.63
2023-05-23T07:26:11.263Z,44.95
2023-05-23T07:28:51.008Z,42.84
2023-05-23T07:31:22.625Z,41.52
2023-05-23T07:33:59.033Z,41.41
2023-05-23T07:36:35.656Z,41.29
2023-05-23T07:39:09.298Z,44.42
2023-05-23T07:41:38.843Z,42.31
2023-05-23T07:44:10.051Z,39.83
2023-05-23T07:46:53.130Z,39.26
2023-05-23T07:49:26.184Z,39.06
2023-05-23T07:51:57.653Z,38.77
2023-05-23T07:54:27.262Z,37.23
2023-05-23T07:57:06.810Z,38.79
2023-05-23T07:59:36.750Z,37.72
2023-05-23T08:02:06.308Z,37.50
2023-05-23T08:04:43.054Z,37.63
2023-05-23T08:07:12.477Z,38.02
2023-05-23T08:10:01.589Z,37.32
2023-05-23T08:12:33.867Z,37.00
2023-05-23T08:15:11.496Z,37.42
2023-05-23T08:17:50.250Z,37.30
2023-05-23T08:20:30.038Z,37.50
2023-05-23T08:23:01.911Z,36.92
2023-05-23T08:25:31.839Z,36.30
2023-05-23T08:28:15.048Z,36.88
2023-05-23T08:30:50.178Z,35.53
2023-05-23T08:33:20.196Z,35.83
2023-05-23T08:35:50.757Z,35.93
2023-05-23T08:38:23.748Z,36.88
2023-05-23T08:41:23.184Z,35.41
2023-05-23T08:43:55.167Z,35.19
2023-05-23T08:46:30.309Z,35.76
2023-05-23T08:49:00.570Z,35.11
2023-05-23T08:51:31.368Z,35.81
2023-05-23T08:54:03.264Z,34.29
2023-05-23T08:56:40.753Z,33.86
2023-05-23T08:59:17.075Z,32.95
2023-05-23T09:01:58.234Z,32.75
2023-05-23T09:04:32.018Z,32.25
2023-05-23T09:07:06.821Z,32.31
2023-05-23T09:09:36.753Z,31.54
2023-05-23T09:12:09.932Z,32.16
2023-05-23T09:14:49.625Z,31.60
2023-05-23T09:17:24.043Z,31.07
2023-05-23T09:19:54.406Z,29.97
2023-05-23T09:22:51.464Z,30.73
2023-05-23T09:25:22.519Z,29.98
2023-05-23T09:27:54.534Z,31.21
2023-05-23T09:30:34.606Z,29.70
2023-05-23T09:33:09.667Z,30.00
2023-05-23T09:35:46.748Z,29.27
2023-05-23T09:38:20.798Z,29.33
2023-05-23T09:40:50.519Z,29.43
2023-05-23T09:43:25.639Z,28.44
2023-05-23T09:46:06.872Z,30.42
2023-05-23T09:48:35.785Z,30.68
2023-05-23T09:51:21.026Z,30.47
2023-05-23T09:53:51.690Z,28.21
2023-05-23T09:56:28.943Z,27.83
2023-05-23T09:59:01.200Z,27.22
2023-05-23T10:01:33.617Z,28.11
2023-05-23T10:04:10.824Z,27.85
2023-05-23T10:06:49.630Z,28.80
2023-05-23T10:09:25.151Z,27.90
2023-05-23T10:12:36.855Z,27.80
2023-05-23T10:15:10.021Z,27.34
2023-05-23T10:17:56.573Z,27.49
2023-05-23T10:20:31.847Z,27.41
2023-05-23T10:23:01.669Z,27.74
2023-05-23T10:25:30.789Z,27.52
2023-05-23T10:28:03.942Z,29.18
2023-05-23T10:30:44.389Z,29.06
2023-05-23T10:33:19.580Z,28.02
2023-05-23T10:35:59.649Z,28.07
2023-05-23T10:38:36.610Z,29.09
2023-05-23T10:41:19.032Z,28.41
2023-05-23T10:43:57.495Z,28.04
2023-05-23T10:46:57.015Z,27.56
2023-05-23T10:49:48.989Z,27.65
2023-05-23T10:52:19.001Z,28.16
2023-05-23T10:54:51.094Z,28.99
2023-05-23T10:57:27.218Z,27.16
2023-05-23T10:59:59.468Z,26.44
2023-05-23T11:02:32.090Z,27.50
2023-05-23T11:05:22.559Z,27.79
2023-05-23T11:08:17.405Z,27.07
2023-05-23T11:11:02.959Z,27.55
2023-05-23T11:13:56.444Z,28.33
2023-05-23T11:16:29.768Z,29.20
2023-05-23T11:19:27.609Z,29.00
2023-05-23T11:21:59.794Z,28.52
2023-05-23T11:24:51.144Z,28.76
2023-05-23T11:27:30.800Z,29.53
2023-05-23T11:30:01.311Z,28.93
2023-05-23T11:32:31.461Z,28.45
2023-05-23T11:35:05.581Z,28.94
2023-05-23T11:37:37.860Z,29.32
2023-05-23T11:40:29.556Z,27.72
2023-05-23T11:42:59.470Z,27.38
2023-05-23T11:45:31.884Z,27.30
2023-05-23T11:48:17.267Z,27.64
2023-05-23T11:50:50.933Z,27.76
2023-05-23T11:53:21.581Z,27.82
2023-05-23T11:55:54.906Z,27.22
2023-05-23T11:58:23.304Z,28.83
2023-05-23T12:00:55.060Z,28.09
2023-05-23T12:03:27.608Z,28.17
2023-05-23T12:05:57.838Z,28.05
2023-05-23T12:08:26.709Z,28.21
2023-05-23T12:10:58.982Z,27.79
2023-05-23T12:13:30.164Z,28.00
2023-05-23T12:16:01.664Z,28.34
2023-05-23T12:18:35.292Z,27.53
2023-05-23T12:21:08.142Z,27.54
2023-05-23T12:23:39.402Z,27.71
2023-05-23T12:26:12.778Z,28.42
2023-05-23T12:28:44.342Z,27.44
2023-05-23T12:31:17.809Z,27.93
2023-05-23T12:33:48.391Z,28.81
2023-05-23T12:36:24.004Z,29.67
2023-05-23T12:39:02.237Z,27.37
2023-05-23T12:41:32.590Z,27.56
2023-05-23T12:44:03.783Z,27.83
2023-05-23T12:46:32.854Z,27.93
2023-05-23T12:49:01.819Z,29.08
2023-05-23T12:51:33.089Z,28.76
2023-05-23T12:54:02.138Z,30.61
2023-05-23T12:56:32.188Z,30.39
2023-05-23T12:59:05.525Z,30.25
2023-05-23T13:01:40.827Z,29.38
2023-05-23T13:04:10.062Z,29.48
2023-05-23T13:06:39.460Z,30.10
2023-05-23T13:09:11.950Z,29.31
2023-05-23T13:11:42.117Z,28.94
2023-05-23T13:14:14.561Z,29.10
2023-05-23T13:16:47.432Z,30.33
2023-05-23T13:19:24.230Z,29.82
2023-05-23T13:21:53.960Z,30.14
2023-05-23T13:24:24.359Z,29.54
2023-05-23T13:26:53.748Z,29.88
2023-05-23T13:29:22.678Z,29.15
2023-05-23T13:31:55.121Z,28.79
2023-05-23T13:34:24.108Z,29.93
2023-05-23T13:36:53.200Z,29.05
2023-05-23T13:39:22.404Z,28.54
2023-05-23T13:41:53.794Z,29.19
2023-05-23T13:44:22.803Z,29.69
2023-05-23T13:47:12.527Z,29.84
2023-05-23T13:49:43.144Z,29.22
2023-05-23T13:52:15.341Z,28.36
2023-05-23T13:54:46.034Z,29.94
2023-05-23T13:57:15.183Z,29.32
2023-05-23T13:59:44.847Z,29.60
2023-05-23T14:02:13.891Z,29.12
2023-05-23T14:04:43.136Z,28.54
2023-05-23T14:07:14.416Z,29.51
2023-05-23T14:09:44.435Z,29.27
2023-05-23T14:12:13.434Z,29.42
2023-05-23T14:14:42.665Z,29.14
2023-05-23T14:17:21.411Z,30.37
2023-05-23T14:19:51.088Z,30.39
2023-05-23T14:22:22.212Z,30.68
2023-05-23T14:24:54.256Z,29.88
2023-05-23T14:27:23.915Z,29.88
2023-05-23T14:29:55.495Z,30.09
2023-05-23T14:32:24.452Z,29.99
2023-05-23T14:34:54.742Z,29.21
2023-05-23T14:37:23.566Z,30.48
2023-05-23T14:39:53.389Z,29.95
2023-05-23T14:42:25.110Z,29.25
2023-05-23T14:44:54.300Z,29.96
2023-05-23T14:47:23.138Z,29.98
2023-05-23T14:49:52.368Z,31.07
2023-05-23T14:52:24.510Z,28.99
2023-05-23T14:54:53.624Z,29.28
2023-05-23T14:57:25.508Z,29.46
2023-05-23T14:59:59.787Z,30.46
2023-05-23T15:02:29.410Z,30.28
2023-05-23T15:04:58.733Z,30.00
2023-05-23T15:07:28.087Z,30.89
2023-05-23T15:09:57.584Z,30.10
2023-05-23T15:12:32.680Z,30.99
2023-05-23T15:15:03.696Z,31.92
2023-05-23T15:17:33.842Z,30.89
2023-05-23T15:20:05.323Z,30.68
2023-05-23T15:22:40.467Z,30.76
2023-05-23T15:25:33.902Z,30.85
2023-05-23T15:28:15.571Z,30.86
2023-05-23T15:30:49.087Z,30.81
2023-05-23T15:33:23.043Z,31.11
2023-05-23T15:35:55.275Z,30.59
2023-05-23T15:38:24.361Z,32.58
2023-05-23T15:40:54.906Z,31.84
2023-05-23T15:43:25.713Z,31.41
2023-05-23T15:45:55.054Z,31.72
2023-05-23T15:48:24.212Z,31.26
2023-05-23T15:50:53.304Z,31.43
2023-05-23T15:53:25.397Z,31.60
2023-05-23T15:55:57.227Z,32.33
2023-05-23T15:58:32.452Z,31.22
2023-05-23T16:01:02.908Z,31.77
2023-05-23T16:03:34.678Z,31.91
2023-05-23T16:06:05.259Z,33.07
2023-05-23T16:08:37.015Z,33.63
2023-05-23T16:11:09.009Z,33.11
2023-05-23T16:13:40.577Z,32.16
2023-05-23T16:16:10.697Z,32.49
2023-05-23T16:18:40.815Z,32.39
2023-05-23T16:21:13.166Z,32.62
2023-05-23T16:23:42.081Z,33.49
2023-05-23T16:26:11.375Z,32.88
2023-05-23T16:28:43.251Z,32.88
2023-05-23T16:31:18.186Z,33.77
2023-05-23T16:33:47.108Z,34.39
2023-05-23T16:36:17.286Z,34.16
2023-05-23T16:38:46.633Z,33.46
2023-05-23T16:41:17.260Z,33.19
2023-05-23T16:43:48.844Z,34.06
2023-05-23T16:46:22.144Z,34.86
2023-05-23T16:51:37.710Z,34.65
2023-05-23T16:54:09.569Z,35.74
2023-05-23T16:56:41.004Z,35.49
2023-05-23T16:59:10.350Z,36.28
2023-05-23T17:01:57.092Z,39.25
2023-05-23T17:04:26.165Z,38.79
2023-05-23T17:06:55.259Z,37.52
2023-05-23T17:09:24.457Z,38.90
2023-05-23T17:11:56.453Z,38.22
2023-05-23T17:14:28.024Z,39.03
2023-05-23T17:16:57.010Z,39.56
2023-05-23T17:19:27.942Z,39.63
2023-05-23T17:21:58.533Z,39.94
2023-05-23T17:24:33.631Z,41.02
2023-05-23T17:27:03.939Z,41.84
2023-05-23T17:29:35.256Z,41.96
2023-05-23T17:32:09.568Z,41.16
2023-05-23T17:34:42.048Z,43.23
2023-05-23T17:37:12.680Z,42.86
2023-05-23T17:39:42.841Z,43.78
2023-05-23T17:42:15.266Z,45.09
2023-05-23T17:44:46.511Z,44.66
2023-05-23T17:47:18.278Z,45.51
2023-05-23T17:49:48.750Z,46.76
2023-05-23T17:52:19.073Z,47.29
2023-05-23T17:54:49.065Z,47.82
2023-05-23T17:57:22.984Z,49.11
2023-05-23T17:59:56.772Z,48.28
2023-05-23T18:02:27.586Z,48.82
2023-05-23T18:04:59.006Z,49.36
2023-05-23T18:07:28.277Z,50.27
2023-05-23T18:09:59.121Z,51.52
2023-05-23T18:12:28.456Z,50.94
2023-05-23T18:14:59.257Z,50.92
2023-05-23T18:17:29.947Z,51.87
2023-05-23T18:19:59.788Z,52.25
2023-05-23T18:22:32.797Z,51.42
2023-05-23T18:25:02.121Z,52.04
2023-05-23T18:27:37.121Z,51.57
2023-05-23T18:30:22.953Z,51.13
2023-05-23T18:33:01.614Z,51.54
2023-05-23T18:35:39.982Z,52.63
2023-05-23T18:38:14.899Z,51.15
2023-05-23T18:40:44.981Z,52.52
2023-05-23T18:43:20.627Z,52.74
2023-05-23T18:45:50.549Z,53.27
2023-05-23T18:48:27.898Z,52.63
2023-05-23T18:51:02.641Z,52.89
2023-05-23T18:53:33.807Z,52.94
2023-05-23T18:56:08.302Z,53.83
2023-05-23T18:58:38.809Z,53.94
2023-05-23T19:01:11.017Z,54.73
2023-05-23T19:03:40.758Z,54.48
2023-05-23T19:06:10.204Z,55.09
2023-05-23T19:08:41.883Z,55.16
2023-05-23T19:11:11.632Z,55.47
2023-05-23T19:13:40.812Z,55.88
2023-05-23T19:16:13.751Z,55.27
2023-05-23T19:18:42.773Z,55.27
2023-05-23T19:21:17.888Z,55.35
2023-05-23T19:23:48.554Z,55.11
2023-05-23T19:26:20.465Z,55.52
2023-05-23T19:28:50.528Z,56.02
2023-05-23T19:31:27.121Z,56.55
2023-05-23T19:33:57.689Z,56.12
2023-05-23T19:36:31.000Z,56.27
2023-05-23T19:39:00.167Z,56.98
2023-05-23T19:41:29.267Z,57.95
2023-05-23T19:43:58.037Z,58.84
2023-05-23T19:46:28.214Z,58.76
2023-05-23T19:48:57.435Z,59.10
2023-05-23T19:51:29.724Z,59.14
2023-05-23T19:53:58.889Z,59.62
2023-05-23T19:56:29.058Z,59.23
2023-05-23T19:58:58.147Z,59.16
2023-05-23T20:01:29.467Z,60.08
2023-05-23T20:03:58.342Z,59.84
2023-05-23T20:06:27.454Z,58.22
2023-05-23T20:08:56.484Z,59.41
2023-05-23T20:11:28.725Z,59.38
2023-05-23T20:14:00.600Z,60.31
2023-05-23T20:16:29.782Z,59.53
2023-05-23T20:18:59.199Z,60.57
2023-05-23T20:21:30.663Z,59.78
2023-05-23T20:24:02.151Z,61.78
2023-05-23T20:26:32.528Z,59.83
2023-05-23T20:29:09.321Z,59.19
2023-05-23T20:31:54.049Z,58.83
2023-05-23T20:34:23.467Z,58.83
2023-05-23T20:36:53.172Z,59.43
2023-05-23T20:39:23.612Z,59.68
2023-05-23T20:41:54.429Z,60.46
2023-05-23T20:44:23.315Z,59.56
2023-05-23T20:46:57.279Z,60.93
2023-05-23T20:49:26.479Z,57.63
2023-05-23T20:51:57.816Z,59.57
2023-05-23T20:54:27.655Z,59.71
2023-05-23T20:56:57.032Z,58.97
2023-05-23T20:59:25.953Z,57.87
2023-05-23T21:01:55.053Z,58.31
2023-05-23T21:04:28.267Z,57.92
2023-05-23T21:06:57.408Z,58.30
2023-05-23T21:09:26.320Z,58.32
2023-05-23T21:12:14.501Z,56.93
2023-05-23T21:14:44.774Z,58.27
2023-05-23T21:17:15.398Z,60.53
2023-05-23T21:19:46.056Z,59.37
2023-05-23T21:22:15.541Z,58.77
2023-05-23T21:24:54.046Z,58.77
2023-05-23T21:27:22.934Z,60.14
2023-05-23T21:29:52.258Z,58.72
2023-05-23T21:32:23.496Z,59.60
2023-05-23T21:34:52.694Z,59.12
2023-05-23T21:37:21.704Z,58.93
2023-05-23T21:39:52.337Z,58.10
2023-05-23T21:42:22.100Z,59.93
2023-05-23T21:44:53.831Z,60.56
2023-05-23T21:47:24.846Z,59.85
2023-05-23T21:49:54.243Z,59.67
2023-05-23T21:52:23.294Z,60.32
2023-05-23T21:54:52.260Z,62.06
2023-05-23T21:57:21.687Z,60.27
2023-05-23T21:59:50.554Z,59.81
2023-05-23T22:02:25.436Z,62.17
2023-05-23T22:04:54.619Z,59.10
2023-05-23T22:07:25.518Z,59.17
2023-05-23T22:09:55.767Z,57.79
2023-05-23T22:12:25.486Z,58.06
2023-05-23T22:14:55.133Z,58.17
2023-05-23T22:17:25.809Z,58.40
2023-05-23T22:19:56.753Z,57.79
2023-05-23T22:22:26.514Z,57.92
2023-05-23T22:24:55.320Z,57.60
2023-05-23T22:27:25.288Z,57.28
2023-05-23T22:29:54.625Z,57.31
2023-05-23T22:32:28.163Z,57.59
2023-05-23T22:34:58.505Z,57.68
2023-05-23T22:37:27.542Z,57.88
2023-05-23T22:39:57.592Z,57.33
2023-05-23T22:42:26.818Z,57.94
2023-05-23T22:44:56.233Z,57.96
2023-05-23T22:47:25.499Z,58.18
2023-05-23T22:49:56.023Z,58.64
2023-05-23T22:52:25.408Z,58.79
2023-05-23T22:54:54.969Z,59.57
2023-05-23T22:57:24.004Z,58.16
2023-05-23T22:59:55.482Z,59.49
2023-05-23T23:02:26.887Z,57.94
2023-05-23T23:04:57.212Z,57.53
2023-05-23T23:07:27.436Z,57.24
2023-05-23T23:09:56.849Z,57.24
2023-05-23T23:12:25.762Z,57.44
2023-05-23T23:14:57.658Z,57.10
2023-05-23T23:17:26.592Z,57.39
2023-05-23T23:20:00.190Z,58.63
2023-05-23T23:22:30.548Z,58.62
2023-05-23T23:25:02.150Z,58.03
2023-05-23T23:27:31.950Z,56.91
2023-05-23T23:30:00.957Z,57.34
2023-05-23T23:32:31.229Z,58.02
2023-05-23T23:35:01.524Z,57.30
2023-05-23T23:37:32.044Z,56.54
2023-05-23T23:40:00.780Z,57.77
2023-05-23T23:42:29.954Z,57.32
2023-05-23T23:44:59.162Z,57.61
2023-05-23T23:47:29.719Z,57.00
2023-05-23T23:50:00.564Z,57.15
2023-05-23T23:52:32.413Z,57.35
2023-05-23T23:55:01.683Z,57.81
2023-05-23T23:57:31.856Z,57.39
